Terminal Aerodrome Forecast
Issued by NWS Burlington, VT

Home | Current Version | Previous Version | Text Only | Print | Product List | Glossary On
Versions: 1 2 3 4 5 6 7 8 9 10 11 12 13 14 15 16 17 18 19 20 21 22 23
000
FTUS41 KBTV 201100
TAFBTV
TAF
KBTV 201120Z 2012/2112 18005KT P6SM SCT060 BKN150
     FM210100 18007KT P6SM VCSH SCT045 OVC080
     FM210600 17005KT P6SM -SHRA OVC045=

USA.gov is the U.S. government's official web portal to all federal, state and local government web resources and services.